Kezdőlap
METAR-TAF:

METAR-TAF

Repülőterek :

Västerås, Svédország

földrajzi szélesség: 59-35N, földrajzi hosszúság: 016-38E, magasság: 6 m

Jelenlegi meteorológiai megfigyelések

A jelentés 35 perccel ezelõtt készült, 21:20 UTC
Nyugati szél 3 kt, délnyugati és északnyugati között változik
Hőmérséklet 20°C
Páratartalom 64%
Légköri nyomás 1015 hPa
Látótávolság 10 km, vagy több

METAR: ESOW 192120Z AUTO 26003KT 230V310 9999 NCD 20/13 Q1015

Idő: 23:55 (21:55 UTC)

Előrejelzés

A jelentés 10 órával és 25 perccel ezelõtt készült, 11:30 UTC
Az előrejelzés 19-én 12 óra UTC és 19-én 15 óra UTC között érvényes
Nyugat-északnyugati szél 9 kt
Látótávolság 10 km, vagy több
felhőtlen 1500 m magasságban, és nincs gomolyfelhõ

TAF: ESOW 191130Z 1912/1915 30009KT CAVOK

Meteorológiai megfigyelések és előrejelzések több, mint 4000 repülőtéren (METAR és TAF jelentéseket).

A térképen piros és sárga pontok jelzik az elérhető meteorológiai állomásokat.

Mozgassa az egeret a pont fölött, hogy megjelenjen az állomás neve.

Azután kattintson az időjárási megfigyelések és előrejelzések megtekintéséhez.

A térkép megváltoztatása: kattintson a fekete keresztel jelölt zöld gombra ráközelítéshez, a vonallal jelölt zöld gombra távolításhoz, vagy a zöld nyilakra a szomszédos térképek eléréséhez.


METAR-TAF: